Flight Track Log - Related Links

Times and Time Zones

All times are in EDT time to prevent confusion due to time zone crossing. See the OPT332 flight status page for this flight to view local times or setup timezone preferences in your user account.

Time Position Orientation Groundspeed Altitude Reporting Facility
EDT Latitude Longitude Course Direction KTS MPH feet Rate Location/Type
Wed 04:01:04 PM 39.1167 -94.6000 229° Southwest 145 167 1,300  Level Kansas City TRACON
Wed 04:02:25 PM 39.0789 -94.6567 229° Southwest 180 207 5,300 2,769 Climbing Kansas City Center
Wed 04:08:39 PM 39.3663 -94.4244 229° Southwest 335 386 22,300 2,689 Climbing FlightAware ADS-B
Wed 04:08:51 PM 39.3765 -94.4054 55° Northeast 340 391 22,600 1,625 Climbing FlightAware ADS-B
Wed 04:09:27 PM 39.4008 -94.3388 65° Northeast 347 399 23,600 1,727 Climbing FlightAware ADS-B
Wed 04:09:57 PM 39.4216 -94.2801 65° Northeast 355 409 24,500 1,672 Climbing FlightAware ADS-B
Wed 04:10:28 PM 39.4420 -94.2206 66° East 359 413 25,300 1,672 Climbing FlightAware ADS-B
Wed 04:10:58 PM 39.4622 -94.1611 66° East 362 417 26,200 1,869 Climbing FlightAware ADS-B
Wed 04:11:29 PM 39.4837 -94.0978 66° East 367 422 27,200 1,839 Climbing FlightAware ADS-B
Wed 04:12:00 PM 39.5045 -94.0364 66° East 371 427 28,100 1,742 Climbing FlightAware ADS-B
Wed 04:12:31 PM 39.5256 -93.9738 66° East 375 432 29,000 1,672 Climbing FlightAware ADS-B
Wed 04:13:01 PM 39.5470 -93.9100 66° East 381 438 29,800 1,600 Climbing FlightAware ADS-B
Wed 04:13:31 PM 39.5684 -93.8464 66° East 386 444 30,600 1,839 Climbing FlightAware ADS-B
Wed 04:14:03 PM 39.5907 -93.7795 67° East 382 440 31,700 2,095 Climbing FlightAware ADS-B
Wed 04:14:34 PM 39.6120 -93.7159 66° East 378 435 32,800 1,258 Climbing FlightAware ADS-B
Wed 04:15:05 PM 39.6342 -93.6496 66° East 398 458 33,000 185 Climbing FlightAware ADS-B
Wed 04:15:39 PM 39.6600 -93.5722 67° East 424 488 33,000 896 Level FlightAware ADS-B
Wed 04:16:12 PM 39.6855 -93.4951 67° East 418 481 34,000 2,063 Climbing FlightAware ADS-B
Wed 04:16:43 PM 39.7085 -93.4253 67° East 404 465 35,200 1,967 Climbing FlightAware ADS-B
Wed 04:17:13 PM 39.7308 -93.3576 67° East 401 461 36,000 1,452 Climbing FlightAware ADS-B
Wed 04:17:45 PM 39.7536 -93.2883 67° East 402 463 36,700 1,452 Climbing FlightAware ADS-B
Wed 04:18:15 PM 39.7756 -93.2212 67° East 399 459 37,500 1,672 Climbing FlightAware ADS-B
Wed 04:18:46 PM 39.7975 -93.1546 67° East 390 449 38,400 1,292 Climbing FlightAware ADS-B
Wed 04:19:20 PM 39.8221 -93.0793 67° East 393 452 38,900 918 Climbing FlightAware ADS-B
Wed 04:20:11 PM 39.8581 -92.9688 67° East 396 456 39,700 1,000 Climbing FlightAware ADS-B
Wed 04:20:44 PM 39.8815 -92.8965 67° East 396 456 40,300 1,000 Climbing FlightAware ADS-B
Wed 04:22:17 PM 39.9478 -92.6915 67° East 394 453 41,800 750 Climbing FlightAware ADS-B
Wed 04:23:48 PM 40.0121 -92.4911 67° East 404 465 42,600 496 Climbing FlightAware ADS-B
Wed 04:24:30 PM 40.0425 -92.3957 67° East 408 470 42,900 429 Climbing FlightAware ADS-B
Wed 04:25:12 PM 40.0622 -92.3267 67° East 404 465 43,200 466 Climbing Kansas City Center
Wed 04:26:13 PM 40.1067 -92.1914 67° East 410 472 43,700 484 Climbing Kansas City Center
Wed 04:27:16 PM 40.1583 -92.0261 68° East 415 478 44,200 488 Climbing Kansas City Center
Wed 04:28:16 PM 40.2019 -91.8869 68° East 418 481 44,700 387 Climbing Kansas City Center
Wed 04:29:20 PM 40.2453 -91.7472 68° East 419 482 45,000 143 Climbing Kansas City Center
Wed 04:30:22 PM 40.2889 -91.6050 68° East 424 488 45,000  Level Kansas City Center
Wed 04:31:22 PM 40.3336 -91.4608 68° East 430 495 45,000  Level Kansas City Center
Wed 04:32:25 PM 40.3867 -91.2872 68° East 432 497 45,000  Level Kansas City Center
Wed 04:33:29 PM 40.4261 -91.1564 68° East 433 498 45,000  Level Kansas City Center
Wed 04:34:11 PM 40.4636 -91.0378 67° East 439 505 45,000  Level Chicago Center
Wed 04:35:13 PM 40.5086 -90.8889 68° East 438 504 45,000  Level Chicago Center
Wed 04:36:16 PM 40.5539 -90.7400 68° East 438 504 45,000  Level Chicago Center
Wed 04:37:18 PM 40.6067 -90.5594 69° East 438 504 45,000  Level Chicago Center
Wed 04:38:20 PM 40.6519 -90.4081 68° East 442 509 45,000  Level Chicago Center
Wed 04:39:22 PM 40.6975 -90.2567 68° East 443 510 45,000  Level Chicago Center
Wed 04:40:24 PM 40.7406 -90.1128 68° East 443 510 45,000  Level Chicago Center
Wed 04:41:26 PM 40.7961 -89.9317 68° East 445 512 45,000  Level Chicago Center
Wed 04:42:28 PM 40.8333 -89.7772 72° East 444 511 45,000  Level Chicago Center
Wed 04:43:30 PM 40.8778 -89.6258 69° East 443 510 45,000  Level Chicago Center
Wed 04:44:32 PM 40.9222 -89.4803 68° East 448 516 45,000  Level Chicago Center
Wed 04:45:34 PM 40.9742 -89.2975 69° East 445 512 45,000  Level Chicago Center
Wed 04:46:36 PM 41.0194 -89.1408 69° East 443 510 45,000  Level Chicago Center
Wed 04:47:39 PM 41.0606 -88.9889 70° East 442 509 45,000  Level Chicago Center
Wed 04:48:41 PM 41.0942 -88.8353 74° East 439 505 45,000  Level Chicago Center
Wed 04:49:43 PM 41.1133 -88.6761 81° East 444 511 45,000  Level Chicago Center
Wed 04:50:45 PM 41.1328 -88.5156 81° East 445 512 45,000  Level Chicago Center
Wed 04:51:47 PM 41.1550 -88.3208 81° East 449 517 45,000  Level Chicago Center
Wed 04:52:49 PM 41.1731 -88.1619 81° East 443 510 45,000  Level Chicago Center
Wed 04:53:51 PM 41.1894 -88.0050 82° East 439 505 45,000  Level Chicago Center
Wed 04:54:53 PM 41.2067 -87.8497 82° East 436 502 45,000  Level Chicago Center
Wed 04:55:55 PM 41.2283 -87.6636 81° East 432 497 45,000  Level Chicago Center
Wed 04:56:57 PM 41.2458 -87.5108 81° East 425 489 45,000  Level Chicago Center
Wed 04:57:59 PM 41.2614 -87.3561 82° East 425 489 45,000  Level Chicago Center
Wed 04:59:02 PM 41.2783 -87.2036 82° East 423 487 45,000  Level Chicago Center
Wed 05:00:04 PM 41.2975 -87.0172 82° East 424 488 45,000  Level Chicago Center
Wed 05:01:06 PM 41.3122 -86.8633 83° East 424 488 45,000  Level Chicago Center
Wed 05:02:08 PM 41.3292 -86.7008 82° East 425 489 45,000  Level Chicago Center
Wed 05:03:10 PM 41.3439 -86.5472 83° East 421 484 45,000  Level Chicago Center
Wed 05:04:12 PM 41.3597 -86.3917 82° East 424 488 45,000  Level Chicago Center
Wed 05:05:14 PM 41.3744 -86.2369 83° East 423 487 45,000  Level Chicago Center
Wed 05:06:16 PM 41.3883 -86.0806 83° East 427 491 45,000  Level Chicago Center
Wed 05:07:18 PM 41.4033 -85.9225 83° East 432 497 45,000  Level Chicago Center
Wed 05:08:20 PM 41.4200 -85.7328 83° East 433 498 45,000  Level Chicago Center
Wed 05:09:22 PM 41.4347 -85.5731 83° East 440 506 45,000  Level Chicago Center
Wed 05:10:25 PM 41.4489 -85.4142 83° East 441 507 45,000  Level Chicago Center
Wed 05:11:27 PM 41.4614 -85.2544 84° East 442 509 45,000  Level Chicago Center
Wed 05:12:29 PM 41.4806 -85.0633 82° East 441 507 45,000  Level Chicago Center
Wed 05:13:31 PM 41.4933 -84.9017 84° East 441 507 45,000  Level Chicago Center
Wed 05:14:33 PM 41.5069 -84.7414 83° East 439 505 45,000  Level Chicago Center
Wed 05:15:35 PM 41.5206 -84.5806 83° East 439 505 45,000  Level Chicago Center
Wed 05:16:37 PM 41.5331 -84.4194 84° East 438 504 45,000  Level Chicago Center
Wed 05:17:39 PM 41.5478 -84.2250 84° East 440 506 45,000  Level Chicago Center
Wed 05:18:41 PM 41.5575 -84.0628 85° East 441 507 45,000  Level Chicago Center
Wed 05:19:50 PM 41.5683 -83.8908 85° East 441 507 45,000  Level Cleveland Center
Wed 05:20:52 PM 41.5764 -83.7297 86° East 437 503 45,000  Level Cleveland Center
Wed 05:21:54 PM 41.5881 -83.5356 85° East 442 509 45,000  Level Cleveland Center
Wed 05:22:56 PM 41.5986 -83.3750 85° East 438 504 45,000  Level Cleveland Center
Wed 05:23:58 PM 41.6078 -83.2147 86° East 436 502 45,000  Level Cleveland Center
Wed 05:25:00 PM 41.6189 -83.0328 85° East 435 501 45,000  Level Cleveland Center
Wed 05:26:02 PM 41.6264 -82.8719 86° East 432 497 45,000  Level Cleveland Center
Wed 05:27:04 PM 41.6356 -82.7097 86° East 432 497 45,000  Level Cleveland Center
Wed 05:28:07 PM 41.6436 -82.5478 86° East 432 497 45,000  Level Cleveland Center
Wed 05:29:09 PM 41.6511 -82.3861 86° East 432 497 45,000  Level Cleveland Center
Wed 05:30:11 PM 41.6586 -82.2269 86° East 432 497 45,000  Level Cleveland Center
Wed 05:31:13 PM 41.6669 -82.0608 86° East 435 501 45,000  Level Cleveland Center
Wed 05:32:15 PM 41.6744 -81.8986 86° East 432 497 45,000  Level Cleveland Center
Wed 05:33:17 PM 41.6819 -81.7083 87° East 432 497 45,000  Level Cleveland Center
Wed 05:34:19 PM 41.6886 -81.5467 87° East 429 494 45,000  Level Cleveland Center
Wed 05:35:21 PM 41.6953 -81.3847 87° East 430 495 45,000  Level Cleveland Center
Wed 05:36:23 PM 41.7017 -81.2233 87° East 429 494 45,000  Level Cleveland Center
Wed 05:37:25 PM 41.7072 -81.0633 87° East 427 491 45,000  Level Cleveland Center
Wed 05:38:27 PM 41.7136 -80.9033 87° East 425 489 45,000  Level Cleveland Center
Wed 05:39:29 PM 41.7194 -80.7439 87° East 427 491 45,000  Level Cleveland Center
Wed 05:40:32 PM 41.7247 -80.5836 87° East 427 491 45,000  Level Cleveland Center
Wed 05:41:34 PM 41.7319 -80.3967 87° East 429 494 45,000  Level Cleveland Center
Wed 05:42:36 PM 41.7367 -80.2369 88° East 427 491 45,000  Level Cleveland Center
Wed 05:43:38 PM 41.7411 -80.0756 88° East 430 495 45,000  Level Cleveland Center
Wed 05:44:40 PM 41.7453 -79.9156 88° East 426 490 45,000  Level Cleveland Center
Wed 05:45:42 PM 41.7497 -79.7561 88° East 424 488 45,000  Level Cleveland Center
Wed 05:46:44 PM 41.7533 -79.6044 88° East 429 494 45,000  Level Cleveland Center
Wed 05:47:46 PM 41.7583 -79.4142 88° East 428 493 45,000  Level Cleveland Center
Wed 05:48:48 PM 41.7544 -79.2611 92° East 430 495 45,000  Level Cleveland Center
Wed 05:49:51 PM 41.7492 -79.1019 92° East 429 494 45,000  Level Cleveland Center
Wed 05:50:53 PM 41.7444 -78.9419 92° East 432 497 45,000  Level Cleveland Center
Wed 05:51:55 PM 41.7403 -78.7772 92° East 430 495 45,000 -726 Level Cleveland Center
Wed 05:52:57 PM 41.7344 -78.5847 92° East 433 498 43,500 -1,403 Descending Cleveland Center
Wed 05:53:59 PM 41.7286 -78.4306 93° East 421 484 42,100 -1,355 Descending Cleveland Center
Wed 05:55:01 PM 41.7244 -78.2792 92° East 411 473 40,700 -1,403 Descending Cleveland Center
Wed 05:56:03 PM 41.7186 -78.1272 93° East 411 473 39,200 -1,452 Descending Cleveland Center
Wed 05:57:05 PM 41.7133 -77.9703 93° East 420 483 37,700 -1,500 Descending Cleveland Center
Wed 05:58:07 PM 41.7067 -77.8117 93° East 427 491 36,100 -1,306 Descending Cleveland Center
Wed 05:59:09 PM 41.7003 -77.6217 93° East 428 493 35,000 -532 Descending Cleveland Center
Wed 06:00:11 PM 41.6939 -77.4733 93° East 427 491 35,000 -47 Level Cleveland Center
Wed 06:01:17 PM 41.6844 -77.2817 94° East 427 491 34,900 -667 Descending New York Center
Wed 06:02:17 PM 41.6769 -77.1503 94° East 427 491 33,600 -1,650 Descending New York Center
Wed 06:03:17 PM 41.6247 -76.9594 110° East 435 501 31,600 -1,850 Descending New York Center
Wed 06:04:17 PM 41.5828 -76.8028 110° East 457 526 29,900 -1,750 Descending New York Center
Wed 06:05:17 PM 41.5406 -76.6494 110° East 448 516 28,100 -1,650 Descending New York Center
Wed 06:06:17 PM 41.5053 -76.5189 110° East 432 497 26,600 -1,600 Descending New York Center
Wed 06:07:17 PM 41.4644 -76.3658 110° East 432 497 24,900 -1,600 Descending New York Center
Wed 06:08:17 PM 41.4239 -76.2075 109° East 438 504 23,400 -1,450 Descending New York Center
Wed 06:09:17 PM 41.3731 -76.0431 112° Southeast 438 504 22,000 -1,350 Descending New York Center
Wed 06:10:17 PM 41.3333 -75.9072 111° Southeast 430 495 20,700 -1,350 Descending New York Center
Wed 06:11:17 PM 41.2956 -75.7692 110° East 403 464 19,300 -1,600 Descending New York Center
Wed 06:12:17 PM 41.2589 -75.6478 112° Southeast 397 457 17,500 -2,000 Descending New York Center
Wed 06:13:17 PM 41.2125 -75.5064 114° Southeast 379 436 15,300 -2,100 Descending New York Center
Wed 06:14:17 PM 41.1717 -75.3822 114° Southeast 373 429 13,300 -1,950 Descending New York Center
Wed 06:15:17 PM 41.1369 -75.2561 110° East 360 414 11,400 -1,900 Descending New York Center
Wed 06:16:17 PM 41.1133 -75.1608 108° East 333 383 9,500 -1,850 Descending New York Center
Wed 06:17:17 PM 41.0794 -75.0594 114° Southeast 303 349 7,700 -1,700 Descending New York Center
Wed 06:18:17 PM 41.0308 -74.9658 125° Southeast 289 333 6,100 -800 Descending New York Center
Wed 06:19:17 PM 41.0258 -74.8692 94° East 262 302 6,100 -400 Level New York Center
Wed 06:20:17 PM 41.0456 -74.7794 74° East 257 296 5,300 -850 Descending New York Center
Wed 06:21:17 PM 41.0636 -74.6789 77° East 256 295 4,400 -600 Descending New York Center
Wed 06:22:17 PM 41.0786 -74.6053 75° East 233 268 4,100 -200 Descending New York Center
Wed 06:23:17 PM 41.0958 -74.5211 75° East 220 253 4,000 -305 Descending New York Center
Wed 06:28:51 PM 41.0320 -74.0759 75° East 196 226 2,100 -356 Descending FlightAware ADS-B
Wed 06:28:54 PM 41.0308 -74.0724 114° Southeast 195 224 2,000 -2,000 Descending FlightAware ADS-B
Wed 06:28:57 PM 41.0294 -74.0693 121° Southeast 193 222 1,900 -643 Descending FlightAware ADS-B
Wed 06:29:22 PM 41.0128 -74.0522 142° Southeast 179 206 1,700 -400 Descending FlightAware ADS-B
Wed 06:29:27 PM 41.0092 -74.0503 158° South 170 196 1,700 545 Level FlightAware ADS-B
Wed 06:29:33 PM 41.0046 -74.0486 164° South 165 190 1,800 176 Climbing FlightAware ADS-B
Wed 06:30:01 PM 40.9837 -74.0487 180° South 160 184 1,800  Level FlightAware ADS-B
Wed 06:30:18 PM 40.9714 -74.0500 185° South 156 180 1,800 -167 Level FlightAware ADS-B
Wed 06:30:37 PM 40.9585 -74.0510 183° South 146 168 1,700 -176 Descending FlightAware ADS-B
Wed 06:30:52 PM 40.9491 -74.0517 183° South 131 151 1,700 -514 Level FlightAware ADS-B
Wed 06:31:12 PM 40.9373 -74.0529 184° South 129 148 1,400 -833 Descending FlightAware ADS-B
Wed 06:31:28 PM 40.9282 -74.0538 184° South 121 139 1,200 -480 Descending FlightAware ADS-B
Wed 06:31:37 PM 40.9232 -74.0544 185° South 118 136 1,200 -462 Level FlightAware ADS-B
Wed 06:31:41 PM 40.9210 -74.0546 184° South 117 135 1,100 -900 Descending FlightAware ADS-B
Wed 06:31:57 PM 40.9122 -74.0552 183° South 117 135 900 -581 Descending FlightAware ADS-B
Wed 06:32:12 PM 40.9042 -74.0558 183° South 114 131 800 -581 Descending FlightAware ADS-B
Wed 06:32:28 PM 40.8959 -74.0563 183° South 110 127 600 -857 Descending FlightAware ADS-B
Wed 06:32:40 PM 40.8897 -74.0567 183° South 110 127 400 -632 Descending FlightAware ADS-B
Wed 06:32:47 PM 40.8863 -74.0569 183° South 111 128 400 -400 Level FlightAware ADS-B
Wed 06:32:55 PM 40.8821 -74.0572 183° South 111 128 300 -1,000 Descending FlightAware ADS-B
Wed 06:32:59 PM 40.8798 -74.0573 182° South 110 127 200 -545 Descending FlightAware ADS-B
Wed 06:33:06 PM 40.8766 -74.0575 183° South 109 125 200  Level FlightAware ADS-B

Login

Don't have an account? Register now (free) for customized features, flight alerts, and more!